sensor_id;sensor_type;location;lat;lon;timestamp;pressure;altitude;pressure_sealevel;temperature;humidity
3544;BME280;1786;52.870;9.578;2023-07-31T00:01:31;99995.22;;;26.08;54.09
3544;BME280;1786;52.870;9.578;2023-07-31T00:03:58;99990.69;;;25.75;54.89
3544;BME280;1786;52.870;9.578;2023-07-31T00:06:27;99981.66;;;26.21;54.10
3544;BME280;1786;52.870;9.578;2023-07-31T00:08:53;99982.78;;;25.67;55.13
3544;BME280;1786;52.870;9.578;2023-07-31T00:11:20;99979.47;;;25.65;55.76
3544;BME280;1786;52.870;9.578;2023-07-31T00:13:48;99979.50;;;25.52;56.22
3544;BME280;1786;52.870;9.578;2023-07-31T00:16:14;99981.38;;;25.18;56.55
3544;BME280;1786;52.870;9.578;2023-07-31T00:18:41;99976.56;;;25.60;55.87
3544;BME280;1786;52.870;9.578;2023-07-31T00:21:08;99972.38;;;25.90;55.36
3544;BME280;1786;52.870;9.578;2023-07-31T00:23:34;99963.25;;;25.45;56.82
3544;BME280;1786;52.870;9.578;2023-07-31T00:26:01;99971.56;;;25.63;56.29
3544;BME280;1786;52.870;9.578;2023-07-31T00:28:28;99970.75;;;25.56;56.55
3544;BME280;1786;52.870;9.578;2023-07-31T00:30:55;99962.16;;;25.73;56.56
3544;BME280;1786;52.870;9.578;2023-07-31T00:33:25;99963.06;;;25.46;56.77
3544;BME280;1786;52.870;9.578;2023-07-31T00:35:51;99967.78;;;25.78;56.20
3544;BME280;1786;52.870;9.578;2023-07-31T00:38:18;99958.63;;;25.85;55.90
3544;BME280;1786;52.870;9.578;2023-07-31T00:40:45;99957.22;;;25.63;56.34
3544;BME280;1786;52.870;9.578;2023-07-31T00:43:12;99951.13;;;25.94;55.99
3544;BME280;1786;52.870;9.578;2023-07-31T00:45:40;99957.63;;;25.73;56.51
3544;BME280;1786;52.870;9.578;2023-07-31T00:48:07;99955.31;;;25.70;56.58
3544;BME280;1786;52.870;9.578;2023-07-31T00:50:34;99955.53;;;25.62;56.88
3544;BME280;1786;52.870;9.578;2023-07-31T00:53:01;99956.41;;;26.27;55.05
3544;BME280;1786;52.870;9.578;2023-07-31T00:55:28;99954.66;;;25.81;56.26
3544;BME280;1786;52.870;9.578;2023-07-31T00:57:55;99959.47;;;25.86;55.98
3544;BME280;1786;52.870;9.578;2023-07-31T01:00:22;99953.31;;;26.17;55.32
3544;BME280;1786;52.870;9.578;2023-07-31T01:02:49;99943.56;;;26.03;55.65
3544;BME280;1786;52.870;9.578;2023-07-31T01:05:23;99953.34;;;26.62;54.41
3544;BME280;1786;52.870;9.578;2023-07-31T01:08:07;99949.47;;;26.38;54.95
3544;BME280;1786;52.870;9.578;2023-07-31T01:10:59;99944.41;;;26.55;54.01
3544;BME280;1786;52.870;9.578;2023-07-31T01:13:28;99929.16;;;26.61;54.39
3544;BME280;1786;52.870;9.578;2023-07-31T01:15:54;99922.81;;;26.73;53.85
3544;BME280;1786;52.870;9.578;2023-07-31T01:18:21;99922.28;;;26.13;55.03
3544;BME280;1786;52.870;9.578;2023-07-31T01:20:54;99929.91;;;25.91;56.02
3544;BME280;1786;52.870;9.578;2023-07-31T01:26:11;99931.84;;;26.22;55.05
3544;BME280;1786;52.870;9.578;2023-07-31T01:31:16;99928.75;;;26.12;55.19
3544;BME280;1786;52.870;9.578;2023-07-31T01:33:45;99925.50;;;26.42;54.42
3544;BME280;1786;52.870;9.578;2023-07-31T01:36:12;99927.34;;;26.03;55.72
3544;BME280;1786;52.870;9.578;2023-07-31T01:38:39;99925.16;;;26.25;55.00
3544;BME280;1786;52.870;9.578;2023-07-31T01:41:06;99927.13;;;26.11;55.33
3544;BME280;1786;52.870;9.578;2023-07-31T01:43:32;99922.34;;;26.00;55.75
3544;BME280;1786;52.870;9.578;2023-07-31T01:45:59;99923.22;;;25.80;56.15
3544;BME280;1786;52.870;9.578;2023-07-31T01:48:26;99916.66;;;25.30;57.55
3544;BME280;1786;52.870;9.578;2023-07-31T01:50:53;99916.00;;;25.61;56.74
3544;BME280;1786;52.870;9.578;2023-07-31T01:53:20;99913.22;;;25.87;56.04
3544;BME280;1786;52.870;9.578;2023-07-31T01:55:46;99908.66;;;25.75;56.21
3544;BME280;1786;52.870;9.578;2023-07-31T01:58:13;99906.91;;;26.07;55.89
3544;BME280;1786;52.870;9.578;2023-07-31T02:00:40;99908.66;;;26.33;55.10
3544;BME280;1786;52.870;9.578;2023-07-31T02:03:07;99905.34;;;26.31;55.42
3544;BME280;1786;52.870;9.578;2023-07-31T02:05:35;99906.91;;;26.07;55.91
3544;BME280;1786;52.870;9.578;2023-07-31T02:08:02;99902.81;;;25.84;56.41
3544;BME280;1786;52.870;9.578;2023-07-31T02:10:32;99899.44;;;26.41;55.29
3544;BME280;1786;52.870;9.578;2023-07-31T02:12:59;99889.47;;;26.34;55.37
3544;BME280;1786;52.870;9.578;2023-07-31T02:15:25;99888.34;;;26.49;55.21
3544;BME280;1786;52.870;9.578;2023-07-31T02:17:52;99888.19;;;26.75;54.36
3544;BME280;1786;52.870;9.578;2023-07-31T02:20:19;99887.06;;;26.58;54.83
3544;BME280;1786;52.870;9.578;2023-07-31T02:22:46;99885.69;;;26.42;55.20
3544;BME280;1786;52.870;9.578;2023-07-31T02:25:12;99879.09;;;26.63;54.95
3544;BME280;1786;52.870;9.578;2023-07-31T02:27:39;99874.22;;;26.08;56.06
3544;BME280;1786;52.870;9.578;2023-07-31T02:30:07;99877.22;;;25.87;56.73
3544;BME280;1786;52.870;9.578;2023-07-31T02:32:33;99880.91;;;26.06;56.49
3544;BME280;1786;52.870;9.578;2023-07-31T02:35:00;99882.09;;;26.48;55.63
3544;BME280;1786;52.870;9.578;2023-07-31T02:37:28;99871.41;;;26.28;55.82
3544;BME280;1786;52.870;9.578;2023-07-31T02:39:55;99861.25;;;25.65;57.35
3544;BME280;1786;52.870;9.578;2023-07-31T02:42:22;99866.53;;;25.40;58.21
3544;BME280;1786;52.870;9.578;2023-07-31T02:44:49;99854.69;;;25.21;58.39
3544;BME280;1786;52.870;9.578;2023-07-31T02:47:17;99862.97;;;25.46;57.94
3544;BME280;1786;52.870;9.578;2023-07-31T02:49:44;99861.81;;;25.81;57.54
3544;BME280;1786;52.870;9.578;2023-07-31T02:52:11;99858.97;;;25.62;57.39
3544;BME280;1786;52.870;9.578;2023-07-31T02:54:38;99860.25;;;25.46;58.01
3544;BME280;1786;52.870;9.578;2023-07-31T02:57:05;99854.34;;;25.76;57.44
3544;BME280;1786;52.870;9.578;2023-07-31T02:59:31;99859.81;;;25.63;57.49
3544;BME280;1786;52.870;9.578;2023-07-31T03:01:58;99861.88;;;26.19;56.63
3544;BME280;1786;52.870;9.578;2023-07-31T03:04:25;99864.91;;;26.36;56.13
3544;BME280;1786;52.870;9.578;2023-07-31T03:06:51;99856.72;;;25.46;58.49
3544;BME280;1786;52.870;9.578;2023-07-31T03:09:19;99861.66;;;25.69;57.61
3544;BME280;1786;52.870;9.578;2023-07-31T03:11:46;99869.59;;;26.47;55.97
3544;BME280;1786;52.870;9.578;2023-07-31T03:14:12;99870.28;;;25.98;56.97
3544;BME280;1786;52.870;9.578;2023-07-31T03:16:41;99868.66;;;25.97;56.83
3544;BME280;1786;52.870;9.578;2023-07-31T03:19:08;99872.63;;;25.94;57.42
3544;BME280;1786;52.870;9.578;2023-07-31T03:21:35;99868.22;;;26.00;56.96
3544;BME280;1786;52.870;9.578;2023-07-31T03:24:02;99870.22;;;25.53;58.21
3544;BME280;1786;52.870;9.578;2023-07-31T03:26:31;99869.53;;;25.90;57.33
3544;BME280;1786;52.870;9.578;2023-07-31T03:28:57;99866.31;;;26.00;57.23
3544;BME280;1786;52.870;9.578;2023-07-31T03:31:25;99860.41;;;26.23;56.44
3544;BME280;1786;52.870;9.578;2023-07-31T03:33:52;99854.63;;;25.55;57.84
3544;BME280;1786;52.870;9.578;2023-07-31T03:36:19;99864.31;;;25.89;57.62
3544;BME280;1786;52.870;9.578;2023-07-31T03:38:46;99854.16;;;25.71;58.00
3544;BME280;1786;52.870;9.578;2023-07-31T03:41:13;99851.19;;;25.79;58.06
3544;BME280;1786;52.870;9.578;2023-07-31T03:43:39;99852.84;;;25.94;57.44
3544;BME280;1786;52.870;9.578;2023-07-31T03:46:07;99841.41;;;25.85;57.35
3544;BME280;1786;52.870;9.578;2023-07-31T03:48:33;99842.72;;;26.14;57.22
3544;BME280;1786;52.870;9.578;2023-07-31T03:51:00;99848.31;;;26.51;56.10
3544;BME280;1786;52.870;9.578;2023-07-31T03:53:27;99846.19;;;25.89;57.85
3544;BME280;1786;52.870;9.578;2023-07-31T03:55:54;99842.88;;;25.81;57.82
3544;BME280;1786;52.870;9.578;2023-07-31T03:58:20;99837.31;;;25.62;58.47
3544;BME280;1786;52.870;9.578;2023-07-31T04:00:47;99839.66;;;26.04;57.61
3544;BME280;1786;52.870;9.578;2023-07-31T04:03:15;99846.38;;;25.95;57.70
3544;BME280;1786;52.870;9.578;2023-07-31T04:05:42;99837.09;;;25.71;58.80
3544;BME280;1786;52.870;9.578;2023-07-31T04:08:08;99840.88;;;25.56;58.62
3544;BME280;1786;52.870;9.578;2023-07-31T04:10:35;99837.59;;;25.99;57.76
3544;BME280;1786;52.870;9.578;2023-07-31T04:13:02;99841.38;;;25.98;58.12
3544;BME280;1786;52.870;9.578;2023-07-31T04:15:28;99845.41;;;25.69;58.57
3544;BME280;1786;52.870;9.578;2023-07-31T04:17:55;99834.44;;;26.09;57.32
3544;BME280;1786;52.870;9.578;2023-07-31T04:20:22;99841.72;;;25.50;58.71
3544;BME280;1786;52.870;9.578;2023-07-31T04:22:49;99835.47;;;25.50;58.60
3544;BME280;1786;52.870;9.578;2023-07-31T04:25:16;99838.03;;;25.31;59.63
3544;BME280;1786;52.870;9.578;2023-07-31T04:27:43;99834.50;;;25.31;59.13
3544;BME280;1786;52.870;9.578;2023-07-31T04:30:10;99832.44;;;25.06;60.21
3544;BME280;1786;52.870;9.578;2023-07-31T04:32:37;99834.47;;;25.44;59.04
3544;BME280;1786;52.870;9.578;2023-07-31T04:35:05;99828.34;;;25.68;59.09
3544;BME280;1786;52.870;9.578;2023-07-31T04:37:32;99831.47;;;26.17;57.53
3544;BME280;1786;52.870;9.578;2023-07-31T04:39:59;99835.47;;;26.08;57.45
3544;BME280;1786;52.870;9.578;2023-07-31T04:42:25;99838.00;;;26.34;56.87
3544;BME280;1786;52.870;9.578;2023-07-31T04:44:52;99838.16;;;26.46;56.64
3544;BME280;1786;52.870;9.578;2023-07-31T04:47:19;99827.69;;;26.82;55.98
3544;BME280;1786;52.870;9.578;2023-07-31T04:49:46;99825.50;;;26.65;55.93
3544;BME280;1786;52.870;9.578;2023-07-31T04:52:13;99827.91;;;26.48;56.74
3544;BME280;1786;52.870;9.578;2023-07-31T04:54:40;99820.00;;;26.15;56.93
3544;BME280;1786;52.870;9.578;2023-07-31T04:57:07;99812.06;;;25.75;58.09
3544;BME280;1786;52.870;9.578;2023-07-31T04:59:33;99811.72;;;26.42;56.76
3544;BME280;1786;52.870;9.578;2023-07-31T05:02:00;99806.66;;;26.45;56.69
3544;BME280;1786;52.870;9.578;2023-07-31T05:04:27;99801.09;;;26.40;56.65
3544;BME280;1786;52.870;9.578;2023-07-31T05:06:53;99813.47;;;26.61;56.43
3544;BME280;1786;52.870;9.578;2023-07-31T05:09:20;99810.69;;;26.68;56.35
3544;BME280;1786;52.870;9.578;2023-07-31T05:11:48;99823.06;;;26.82;55.87
3544;BME280;1786;52.870;9.578;2023-07-31T05:14:14;99817.31;;;27.15;54.83
3544;BME280;1786;52.870;9.578;2023-07-31T05:16:42;99806.84;;;27.01;55.27
3544;BME280;1786;52.870;9.578;2023-07-31T05:19:09;99787.44;;;26.79;55.64
3544;BME280;1786;52.870;9.578;2023-07-31T05:21:36;99781.13;;;26.66;56.00
3544;BME280;1786;52.870;9.578;2023-07-31T05:24:03;99782.94;;;26.41;56.68
3544;BME280;1786;52.870;9.578;2023-07-31T05:26:30;99787.38;;;26.35;56.86
3544;BME280;1786;52.870;9.578;2023-07-31T05:28:57;99797.28;;;26.73;56.17
3544;BME280;1786;52.870;9.578;2023-07-31T05:31:24;99790.38;;;26.20;57.59
3544;BME280;1786;52.870;9.578;2023-07-31T05:33:51;99783.19;;;25.69;57.99
3544;BME280;1786;52.870;9.578;2023-07-31T05:36:18;99781.16;;;26.28;57.10
3544;BME280;1786;52.870;9.578;2023-07-31T05:38:44;99788.44;;;26.34;56.40
3544;BME280;1786;52.870;9.578;2023-07-31T05:41:12;99786.69;;;26.71;56.02
3544;BME280;1786;52.870;9.578;2023-07-31T05:43:39;99787.97;;;26.69;55.76
3544;BME280;1786;52.870;9.578;2023-07-31T05:46:06;99786.94;;;26.88;55.43
3544;BME280;1786;52.870;9.578;2023-07-31T05:48:33;99777.97;;;27.06;55.17
3544;BME280;1786;52.870;9.578;2023-07-31T05:51:03;99776.44;;;26.73;56.13
3544;BME280;1786;52.870;9.578;2023-07-31T05:53:30;99778.13;;;26.74;56.14
3544;BME280;1786;52.870;9.578;2023-07-31T05:55:56;99773.47;;;26.82;56.15
3544;BME280;1786;52.870;9.578;2023-07-31T05:58:23;99767.72;;;26.15;57.25
3544;BME280;1786;52.870;9.578;2023-07-31T06:00:49;99766.97;;;26.32;57.24
3544;BME280;1786;52.870;9.578;2023-07-31T06:03:16;99760.91;;;26.62;56.72
3544;BME280;1786;52.870;9.578;2023-07-31T06:05:44;99771.69;;;27.12;54.97
3544;BME280;1786;52.870;9.578;2023-07-31T06:08:10;99768.97;;;26.44;56.34
3544;BME280;1786;52.870;9.578;2023-07-31T06:10:38;99759.81;;;26.88;55.87
3544;BME280;1786;52.870;9.578;2023-07-31T06:13:05;99764.13;;;26.96;55.87
3544;BME280;1786;52.870;9.578;2023-07-31T06:15:31;99756.88;;;26.71;56.43
3544;BME280;1786;52.870;9.578;2023-07-31T06:17:58;99757.63;;;27.22;55.12
3544;BME280;1786;52.870;9.578;2023-07-31T06:20:28;99751.72;;;26.63;56.46
3544;BME280;1786;52.870;9.578;2023-07-31T06:22:55;99751.22;;;26.48;56.82
3544;BME280;1786;52.870;9.578;2023-07-31T06:25:22;99754.38;;;26.45;57.14
3544;BME280;1786;52.870;9.578;2023-07-31T06:27:48;99749.59;;;25.83;58.63
3544;BME280;1786;52.870;9.578;2023-07-31T06:30:16;99748.47;;;25.98;58.24
3544;BME280;1786;52.870;9.578;2023-07-31T06:32:43;99742.75;;;26.38;57.96
3544;BME280;1786;52.870;9.578;2023-07-31T06:35:09;99743.38;;;25.76;58.68
3544;BME280;1786;52.870;9.578;2023-07-31T06:37:36;99746.06;;;26.15;58.27
3544;BME280;1786;52.870;9.578;2023-07-31T06:40:07;99740.81;;;26.20;58.63
3544;BME280;1786;52.870;9.578;2023-07-31T06:42:35;99737.63;;;25.66;59.71
3544;BME280;1786;52.870;9.578;2023-07-31T06:45:02;99744.47;;;26.32;58.14
3544;BME280;1786;52.870;9.578;2023-07-31T06:47:29;99738.09;;;26.20;58.20
3544;BME280;1786;52.870;9.578;2023-07-31T06:49:56;99736.69;;;26.42;58.21
3544;BME280;1786;52.870;9.578;2023-07-31T06:52:23;99736.22;;;26.45;58.00
3544;BME280;1786;52.870;9.578;2023-07-31T06:55:18;99738.31;;;25.93;58.91
3544;BME280;1786;52.870;9.578;2023-07-31T06:57:49;99734.25;;;25.71;59.98
3544;BME280;1786;52.870;9.578;2023-07-31T07:00:18;99730.69;;;25.38;60.34
3544;BME280;1786;52.870;9.578;2023-07-31T07:02:45;99731.75;;;25.69;60.10
3544;BME280;1786;52.870;9.578;2023-07-31T07:05:16;99723.66;;;25.62;59.98
3544;BME280;1786;52.870;9.578;2023-07-31T07:07:43;99721.56;;;25.71;59.89
3544;BME280;1786;52.870;9.578;2023-07-31T07:10:10;99722.78;;;26.07;59.49
3544;BME280;1786;52.870;9.578;2023-07-31T07:12:37;99713.13;;;25.47;60.31
3544;BME280;1786;52.870;9.578;2023-07-31T07:15:04;99715.31;;;26.02;59.56
3544;BME280;1786;52.870;9.578;2023-07-31T07:17:31;99715.28;;;26.09;59.09
3544;BME280;1786;52.870;9.578;2023-07-31T07:19:59;99720.19;;;25.94;59.55
3544;BME280;1786;52.870;9.578;2023-07-31T07:22:26;99703.78;;;25.82;59.84
3544;BME280;1786;52.870;9.578;2023-07-31T07:24:55;99712.97;;;25.81;60.07
3544;BME280;1786;52.870;9.578;2023-07-31T07:27:22;99717.00;;;26.28;59.25
3544;BME280;1786;52.870;9.578;2023-07-31T07:29:50;99712.50;;;25.90;59.87
3544;BME280;1786;52.870;9.578;2023-07-31T07:32:20;99712.19;;;26.05;59.60
3544;BME280;1786;52.870;9.578;2023-07-31T07:34:48;99717.63;;;25.67;60.41
3544;BME280;1786;52.870;9.578;2023-07-31T07:37:15;99715.59;;;25.56;61.22
3544;BME280;1786;52.870;9.578;2023-07-31T07:39:42;99718.25;;;25.24;61.94
3544;BME280;1786;52.870;9.578;2023-07-31T07:42:09;99719.59;;;24.81;63.17
3544;BME280;1786;52.870;9.578;2023-07-31T07:44:37;99711.22;;;25.55;61.55
3544;BME280;1786;52.870;9.578;2023-07-31T07:47:04;99718.72;;;25.01;62.84
3544;BME280;1786;52.870;9.578;2023-07-31T07:49:34;99716.53;;;25.36;62.30
3544;BME280;1786;52.870;9.578;2023-07-31T07:52:02;99714.09;;;25.28;62.12
3544;BME280;1786;52.870;9.578;2023-07-31T07:54:30;99717.44;;;25.17;62.64
3544;BME280;1786;52.870;9.578;2023-07-31T07:56:57;99714.19;;;25.46;62.08
3544;BME280;1786;52.870;9.578;2023-07-31T07:59:24;99713.09;;;25.54;62.03
3544;BME280;1786;52.870;9.578;2023-07-31T08:01:51;99710.22;;;25.87;60.80
3544;BME280;1786;52.870;9.578;2023-07-31T08:04:17;99718.72;;;25.53;61.90
3544;BME280;1786;52.870;9.578;2023-07-31T08:06:44;99716.16;;;25.33;61.98
3544;BME280;1786;52.870;9.578;2023-07-31T08:09:11;99708.81;;;24.75;63.30
3544;BME280;1786;52.870;9.578;2023-07-31T08:11:38;99707.25;;;25.19;62.37
3544;BME280;1786;52.870;9.578;2023-07-31T08:14:04;99709.31;;;25.62;61.38
3544;BME280;1786;52.870;9.578;2023-07-31T08:16:31;99714.50;;;25.12;62.11
3544;BME280;1786;52.870;9.578;2023-07-31T08:18:58;99719.41;;;25.80;60.87
3544;BME280;1786;52.870;9.578;2023-07-31T08:21:25;99715.00;;;24.95;63.19
3544;BME280;1786;52.870;9.578;2023-07-31T08:23:52;99704.06;;;25.35;62.88
3544;BME280;1786;52.870;9.578;2023-07-31T08:26:20;99702.38;;;25.41;62.55
3544;BME280;1786;52.870;9.578;2023-07-31T08:28:47;99700.50;;;25.35;62.77
3544;BME280;1786;52.870;9.578;2023-07-31T08:31:14;99704.13;;;25.99;61.62
3544;BME280;1786;52.870;9.578;2023-07-31T08:33:41;99699.81;;;26.16;61.22
3544;BME280;1786;52.870;9.578;2023-07-31T08:36:08;99696.47;;;25.89;61.48
3544;BME280;1786;52.870;9.578;2023-07-31T08:38:34;99707.84;;;25.98;61.17
3544;BME280;1786;52.870;9.578;2023-07-31T08:41:04;99695.34;;;26.28;60.65
3544;BME280;1786;52.870;9.578;2023-07-31T08:43:32;99689.13;;;26.46;60.74
3544;BME280;1786;52.870;9.578;2023-07-31T08:46:00;99692.09;;;26.63;60.49
3544;BME280;1786;52.870;9.578;2023-07-31T08:48:29;99686.72;;;27.18;59.35
3544;BME280;1786;52.870;9.578;2023-07-31T08:50:55;99686.19;;;27.58;58.04
3544;BME280;1786;52.870;9.578;2023-07-31T08:53:22;99681.47;;;27.66;58.10
3544;BME280;1786;52.870;9.578;2023-07-31T08:55:49;99686.25;;;27.03;58.82
3544;BME280;1786;52.870;9.578;2023-07-31T08:58:19;99685.16;;;26.49;59.75
3544;BME280;1786;52.870;9.578;2023-07-31T09:00:46;99678.41;;;26.95;59.55
3544;BME280;1786;52.870;9.578;2023-07-31T09:03:15;99684.44;;;26.79;59.59
3544;BME280;1786;52.870;9.578;2023-07-31T09:05:44;99679.56;;;27.24;58.76
3544;BME280;1786;52.870;9.578;2023-07-31T09:08:12;99675.97;;;27.42;57.47
3544;BME280;1786;52.870;9.578;2023-07-31T09:10:41;99678.56;;;27.00;58.25
3544;BME280;1786;52.870;9.578;2023-07-31T09:13:09;99673.81;;;27.62;57.29
3544;BME280;1786;52.870;9.578;2023-07-31T09:15:39;99670.63;;;27.66;57.04
3544;BME280;1786;52.870;9.578;2023-07-31T09:18:07;99667.66;;;27.55;57.17
3544;BME280;1786;52.870;9.578;2023-07-31T09:20:34;99677.38;;;26.59;59.05
3544;BME280;1786;52.870;9.578;2023-07-31T09:23:14;99667.81;;;26.57;58.58
3544;BME280;1786;52.870;9.578;2023-07-31T09:25:44;99674.56;;;27.21;58.17
3544;BME280;1786;52.870;9.578;2023-07-31T09:28:11;99675.31;;;27.58;57.21
3544;BME280;1786;52.870;9.578;2023-07-31T09:30:49;99671.81;;;28.00;55.86
3544;BME280;1786;52.870;9.578;2023-07-31T09:33:17;99665.88;;;27.19;57.30
3544;BME280;1786;52.870;9.578;2023-07-31T09:35:46;99689.50;;;27.12;57.07
3544;BME280;1786;52.870;9.578;2023-07-31T09:38:15;99666.13;;;27.11;57.49
3544;BME280;1786;52.870;9.578;2023-07-31T09:40:45;99661.47;;;26.81;58.01
3544;BME280;1786;52.870;9.578;2023-07-31T09:43:16;99666.59;;;26.52;58.58
3544;BME280;1786;52.870;9.578;2023-07-31T09:45:44;99658.09;;;27.04;57.62
3544;BME280;1786;52.870;9.578;2023-07-31T09:48:16;99660.44;;;26.82;58.43
3544;BME280;1786;52.870;9.578;2023-07-31T09:50:45;99660.78;;;26.49;58.84
3544;BME280;1786;52.870;9.578;2023-07-31T09:53:12;99660.41;;;27.01;58.38
3544;BME280;1786;52.870;9.578;2023-07-31T09:55:40;99657.03;;;26.68;58.86
3544;BME280;1786;52.870;9.578;2023-07-31T09:58:10;99645.34;;;26.49;58.95
3544;BME280;1786;52.870;9.578;2023-07-31T10:00:38;99641.84;;;26.67;58.92
3544;BME280;1786;52.870;9.578;2023-07-31T10:03:09;99642.06;;;26.22;59.77
3544;BME280;1786;52.870;9.578;2023-07-31T10:05:42;99654.13;;;26.45;60.24
3544;BME280;1786;52.870;9.578;2023-07-31T10:08:10;99646.56;;;26.90;58.92
3544;BME280;1786;52.870;9.578;2023-07-31T10:10:44;99650.63;;;26.63;60.01
3544;BME280;1786;52.870;9.578;2023-07-31T10:13:13;99652.28;;;26.82;60.00
3544;BME280;1786;52.870;9.578;2023-07-31T10:15:40;99642.72;;;26.98;60.24
3544;BME280;1786;52.870;9.578;2023-07-31T10:18:09;99639.28;;;26.72;60.85
3544;BME280;1786;52.870;9.578;2023-07-31T10:20:37;99635.06;;;26.76;60.63
3544;BME280;1786;52.870;9.578;2023-07-31T10:23:04;99627.91;;;26.82;61.11
3544;BME280;1786;52.870;9.578;2023-07-31T10:25:32;99637.41;;;26.48;60.87
3544;BME280;1786;52.870;9.578;2023-07-31T10:27:59;99638.81;;;26.75;60.96
3544;BME280;1786;52.870;9.578;2023-07-31T10:30:29;99629.25;;;27.40;60.05
3544;BME280;1786;52.870;9.578;2023-07-31T10:32:57;99624.66;;;27.40;58.94
3544;BME280;1786;52.870;9.578;2023-07-31T10:35:24;99623.41;;;27.25;59.85
3544;BME280;1786;52.870;9.578;2023-07-31T10:37:52;99613.84;;;27.52;59.67
3544;BME280;1786;52.870;9.578;2023-07-31T10:40:24;99613.94;;;27.88;59.29
3544;BME280;1786;52.870;9.578;2023-07-31T10:42:55;99614.41;;;28.08;58.40
3544;BME280;1786;52.870;9.578;2023-07-31T10:45:25;99609.78;;;27.85;59.02
3544;BME280;1786;52.870;9.578;2023-07-31T10:48:02;99609.78;;;27.85;58.29
3544;BME280;1786;52.870;9.578;2023-07-31T10:50:31;99596.69;;;27.94;59.04
3544;BME280;1786;52.870;9.578;2023-07-31T10:53:01;99593.16;;;27.93;57.96
3544;BME280;1786;52.870;9.578;2023-07-31T10:58:13;99591.00;;;27.83;59.19
3544;BME280;1786;52.870;9.578;2023-07-31T11:00:42;99583.44;;;27.02;60.03
3544;BME280;1786;52.870;9.578;2023-07-31T11:03:14;99584.75;;;26.99;60.73
3544;BME280;1786;52.870;9.578;2023-07-31T11:05:45;99584.50;;;27.19;60.80
3544;BME280;1786;52.870;9.578;2023-07-31T11:08:15;99583.50;;;27.55;60.45
3544;BME280;1786;52.870;9.578;2023-07-31T11:10:43;99579.19;;;27.24;60.84
3544;BME280;1786;52.870;9.578;2023-07-31T11:13:10;99583.56;;;26.58;61.67
3544;BME280;1786;52.870;9.578;2023-07-31T11:15:37;99585.94;;;26.11;63.51
3544;BME280;1786;52.870;9.578;2023-07-31T11:18:04;99573.00;;;26.31;63.25
3544;BME280;1786;52.870;9.578;2023-07-31T11:20:38;99577.66;;;26.24;62.78
3544;BME280;1786;52.870;9.578;2023-07-31T11:23:07;99580.47;;;26.73;62.54
3544;BME280;1786;52.870;9.578;2023-07-31T11:25:35;99569.47;;;26.49;63.10
3544;BME280;1786;52.870;9.578;2023-07-31T11:28:06;99568.22;;;27.19;61.39
3544;BME280;1786;52.870;9.578;2023-07-31T11:30:34;99561.09;;;26.88;62.14
3544;BME280;1786;52.870;9.578;2023-07-31T11:33:03;99566.75;;;27.58;60.78
3544;BME280;1786;52.870;9.578;2023-07-31T11:35:32;99566.41;;;27.55;60.64
3544;BME280;1786;52.870;9.578;2023-07-31T11:38:00;99563.19;;;27.46;61.55
3544;BME280;1786;52.870;9.578;2023-07-31T11:40:28;99557.22;;;27.68;60.45
3544;BME280;1786;52.870;9.578;2023-07-31T11:42:59;99555.22;;;27.63;60.21
3544;BME280;1786;52.870;9.578;2023-07-31T11:45:30;99557.63;;;26.99;61.39
3544;BME280;1786;52.870;9.578;2023-07-31T11:47:57;99555.19;;;27.51;60.56
3544;BME280;1786;52.870;9.578;2023-07-31T11:50:24;99554.50;;;27.68;60.29
3544;BME280;1786;52.870;9.578;2023-07-31T11:52:59;99561.56;;;27.15;61.36
3544;BME280;1786;52.870;9.578;2023-07-31T11:55:27;99554.03;;;26.87;61.57
3544;BME280;1786;52.870;9.578;2023-07-31T11:57:57;99545.03;;;26.74;62.34
3544;BME280;1786;52.870;9.578;2023-07-31T12:00:25;99553.44;;;26.85;62.07
3544;BME280;1786;52.870;9.578;2023-07-31T12:02:52;99547.56;;;26.32;63.44
3544;BME280;1786;52.870;9.578;2023-07-31T12:05:21;99546.53;;;27.31;61.23
3544;BME280;1786;52.870;9.578;2023-07-31T12:07:53;99541.63;;;27.09;62.04
3544;BME280;1786;52.870;9.578;2023-07-31T12:10:30;99542.81;;;27.79;60.33
3544;BME280;1786;52.870;9.578;2023-07-31T12:12:59;99549.50;;;27.29;61.07
3544;BME280;1786;52.870;9.578;2023-07-31T12:15:56;99552.22;;;26.81;61.57
3544;BME280;1786;52.870;9.578;2023-07-31T12:18:26;99537.84;;;26.43;62.71
3544;BME280;1786;52.870;9.578;2023-07-31T12:20:57;99544.63;;;26.89;62.08
3544;BME280;1786;52.870;9.578;2023-07-31T12:23:29;99540.75;;;26.97;61.80
3544;BME280;1786;52.870;9.578;2023-07-31T12:26:15;99542.78;;;27.02;61.14
3544;BME280;1786;52.870;9.578;2023-07-31T12:28:44;99539.59;;;27.05;61.90
3544;BME280;1786;52.870;9.578;2023-07-31T12:31:13;99544.31;;;27.51;60.72
3544;BME280;1786;52.870;9.578;2023-07-31T12:33:41;99532.25;;;27.24;61.04
3544;BME280;1786;52.870;9.578;2023-07-31T12:36:13;99519.75;;;26.92;61.98
3544;BME280;1786;52.870;9.578;2023-07-31T12:38:41;99521.13;;;26.83;62.02
3544;BME280;1786;52.870;9.578;2023-07-31T12:41:08;99517.63;;;25.90;63.79
3544;BME280;1786;52.870;9.578;2023-07-31T12:43:37;99512.31;;;26.51;62.88
3544;BME280;1786;52.870;9.578;2023-07-31T12:46:04;99520.34;;;26.64;62.32
3544;BME280;1786;52.870;9.578;2023-07-31T12:48:32;99518.09;;;26.61;62.67
3544;BME280;1786;52.870;9.578;2023-07-31T12:50:59;99520.78;;;26.43;63.01
3544;BME280;1786;52.870;9.578;2023-07-31T12:53:25;99518.81;;;27.29;61.34
3544;BME280;1786;52.870;9.578;2023-07-31T12:55:52;99516.88;;;27.59;60.37
3544;BME280;1786;52.870;9.578;2023-07-31T12:58:19;99519.28;;;27.26;60.68
3544;BME280;1786;52.870;9.578;2023-07-31T13:00:45;99509.59;;;26.88;61.43
3544;BME280;1786;52.870;9.578;2023-07-31T13:03:12;99510.25;;;26.53;62.37
3544;BME280;1786;52.870;9.578;2023-07-31T13:05:39;99509.72;;;26.63;62.64
3544;BME280;1786;52.870;9.578;2023-07-31T13:08:06;99511.16;;;26.47;63.44
3544;BME280;1786;52.870;9.578;2023-07-31T13:10:32;99508.22;;;27.09;61.67
3544;BME280;1786;52.870;9.578;2023-07-31T13:12:59;99508.97;;;27.16;61.43
3544;BME280;1786;52.870;9.578;2023-07-31T13:15:26;99523.47;;;26.43;62.78
3544;BME280;1786;52.870;9.578;2023-07-31T13:17:52;99510.28;;;26.83;61.60
3544;BME280;1786;52.870;9.578;2023-07-31T13:20:20;99507.13;;;26.56;62.20
3544;BME280;1786;52.870;9.578;2023-07-31T13:22:46;99512.81;;;27.08;61.82
3544;BME280;1786;52.870;9.578;2023-07-31T13:25:13;99502.19;;;26.95;61.27
3544;BME280;1786;52.870;9.578;2023-07-31T13:27:40;99514.66;;;27.26;61.02
3544;BME280;1786;52.870;9.578;2023-07-31T13:30:07;99517.88;;;27.35;60.79
3544;BME280;1786;52.870;9.578;2023-07-31T13:32:34;99523.09;;;27.72;59.73
3544;BME280;1786;52.870;9.578;2023-07-31T13:35:06;99521.56;;;27.52;60.40